Time;durP1;ratioP1;P1;durP2;ratioP2;P2;SDS_P1;SDS_P2;PMS_P1;PMS_P2;Temp;Humidity;BMP_temperature;BMP_pressure;BME280_temperature;BME280_humidity;BME280_pressure;Samples;Min_cycle;Max_cycle;Signal;HPM_P1;HPM_P2
2021/04/10 00:00:18;;;;;;;;;;;9.20;62.70;;;6.99;46.07;95494.31;10328824;28;2361;-80
2021/04/10 00:05:19;;;;;;;;;;;9.70;63.60;;;6.79;46.81;95488.81;10343285;28;2484;-82
2021/04/10 00:10:21;;;;;;;;;;;8.00;63.10;;;6.64;46.90;95486.84;10334546;28;2309;-83
2021/04/10 00:15:23;;;;;;;;;;;7.90;63.40;;;6.50;47.79;95488.34;10329859;28;2281;-81
2021/04/10 00:20:25;;;;;;;;;;;7.70;64.10;;;6.31;48.06;95487.13;10337656;28;2238;-82
2021/04/10 00:25:27;;;;;;;;;;;7.50;64.40;;;6.13;48.15;95483.75;10311926;28;2278;-84
2021/04/10 00:30:30;;;;;;;;;;;7.40;64.70;;;6.07;49.32;95486.63;10321777;28;2274;-82
2021/04/10 00:35:32;;;;;;;;;;;8.40;65.90;;;5.95;49.42;95476.09;10313664;28;2251;-83
2021/04/10 00:40:35;;;;;;;;;;;7.70;66.30;;;5.83;49.94;95470.06;10333809;28;2267;-82
2021/04/10 00:45:37;;;;;;;;;;;8.60;67.30;;;5.85;49.99;95467.94;10308425;28;2322;-82
2021/04/10 00:50:39;;;;;;;;;;;7.00;66.80;;;5.74;51.13;95468.91;10315255;28;2264;-82
2021/04/10 00:55:41;;;;;;;;;;;6.90;67.30;;;5.60;51.27;95460.50;10312451;28;2589;-81
2021/04/10 01:00:43;;;;;;;;;;;6.80;67.90;;;5.57;51.04;95455.66;10337588;28;2262;-82
2021/04/10 01:05:45;;;;;;;;;;;8.00;68.50;;;5.48;51.28;95451.81;10331376;28;3325;-82
2021/04/10 01:10:47;;;;;;;;;;;8.10;68.60;;;5.42;51.32;95456.28;10342136;28;2474;-82
2021/04/10 01:15:49;;;;;;;;;;;6.60;68.20;;;5.38;52.03;95461.28;10364675;28;2502;-83
2021/04/10 01:20:51;;;;;;;;;;;7.40;69.20;;;5.37;51.83;95459.69;10337490;28;2421;-81
2021/04/10 01:25:53;;;;;;;;;;;7.90;69.50;;;5.36;52.29;95459.94;10355285;28;2364;-83
2021/04/10 01:30:58;;;;;;;;;;;7.60;69.70;;;5.31;52.53;95468.69;10357470;28;1910;-82
2021/04/10 01:36:00;;;;;;;;;;;7.70;70.20;;;5.39;52.46;95464.75;10355241;28;2114;-82
2021/04/10 01:41:02;;;;;;;;;;;6.50;69.80;;;5.49;52.32;95474.75;10356321;28;2623;-83
2021/04/10 01:46:06;;;;;;;;;;;7.60;70.60;;;5.63;51.56;95467.97;10346360;28;2425;-82
2021/04/10 01:51:08;;;;;;;;;;;7.30;70.00;;;5.66;51.65;95470.13;10358472;28;2518;-82
2021/04/10 01:56:10;;;;;;;;;;;6.70;69.50;;;5.78;50.98;95476.13;10326332;28;2473;-82
2021/04/10 02:01:12;;;;;;;;;;;6.80;69.20;;;5.82;50.66;95474.59;10343701;28;2447;-82
2021/04/10 02:06:14;;;;;;;;;;;7.40;69.10;;;5.95;50.62;95474.22;10338422;28;2766;-81
2021/04/10 02:11:16;;;;;;;;;;;8.70;69.80;;;6.11;50.11;95466.38;10346246;28;2517;-80
2021/04/10 02:16:18;;;;;;;;;;;7.00;68.60;;;6.33;49.20;95468.97;10354958;28;2517;-80
2021/04/10 02:21:25;;;;;;;;;;;8.60;68.80;;;6.58;48.42;95471.06;10352516;28;2751;-80
2021/04/10 02:26:27;;;;;;;;;;;8.80;68.40;;;6.63;48.13;95471.91;10341678;28;2138;-83
2021/04/10 02:31:29;;;;;;;;;;;8.60;67.60;;;6.78;48.08;95460.50;10355825;28;2036;-80
2021/04/10 02:36:31;;;;;;;;;;;7.70;66.80;;;6.82;47.87;95466.97;10336570;28;2122;-82
2021/04/10 02:41:33;;;;;;;;;;;8.80;67.10;;;6.90;47.71;95458.44;10349796;28;2414;-80
2021/04/10 02:46:35;;;;;;;;;;;7.80;66.40;;;6.99;47.48;95454.22;10328711;28;2197;-82
2021/04/10 02:51:38;;;;;;;;;;;9.30;67.10;;;7.00;47.21;95458.53;10343540;28;2470;-82
2021/04/10 02:56:40;;;;;;;;;;;8.80;66.60;;;7.13;47.42;95451.13;10354791;28;2039;-82
2021/04/10 03:01:42;;;;;;;;;;;9.60;66.80;;;7.17;47.24;95454.84;10368231;28;1964;-82
2021/04/10 03:06:44;;;;;;;;;;;9.20;66.80;;;7.13;47.62;95449.25;10336015;28;2387;-79
2021/04/10 03:11:47;;;;;;;;;;;8.30;66.10;;;7.11;47.53;95453.22;10329168;28;2555;-82
2021/04/10 03:16:49;;;;;;;;;;;8.60;66.40;;;7.12;47.33;95466.31;10324303;28;2855;-81
2021/04/10 03:21:51;;;;;;;;;;;9.00;66.60;;;7.03;47.72;95452.66;10343553;28;2513;-81
2021/04/10 03:26:53;;;;;;;;;;;8.10;66.20;;;7.04;47.11;95459.59;10323996;28;1340;-82
2021/04/10 03:31:55;;;;;;;;;;;8.70;66.60;;;6.94;47.99;95472.91;10332082;28;2536;-80
2021/04/10 03:36:58;;;;;;;;;;;9.60;67.20;;;6.85;48.12;95461.09;10318919;28;2506;-81
2021/04/10 03:42:00;;;;;;;;;;;8.70;67.00;;;6.76;48.50;95465.31;10315945;28;2679;-81
2021/04/10 03:47:02;;;;;;;;;;;8.70;67.30;;;6.73;48.43;95468.47;10322660;28;2616;-80
2021/04/10 03:52:05;;;;;;;;;;;8.50;67.30;;;6.67;48.91;95469.50;10310527;28;1889;-80
2021/04/10 03:57:07;;;;;;;;;;;8.90;67.90;;;6.67;48.98;95480.19;10314537;28;2460;-81
2021/04/10 04:02:09;;;;;;;;;;;7.60;67.30;;;6.66;48.98;95483.94;10309382;28;2658;-82
2021/04/10 04:07:12;;;;;;;;;;;7.60;67.40;;;6.74;48.52;95475.44;10330668;28;2590;-82
2021/04/10 04:12:14;;;;;;;;;;;8.70;67.90;;;6.85;47.90;95477.13;10320084;28;2083;-82
2021/04/10 04:17:16;;;;;;;;;;;8.90;67.90;;;6.95;47.86;95477.19;10319008;28;2670;-81
2021/04/10 04:22:18;;;;;;;;;;;9.00;67.60;;;7.10;47.17;95470.31;10316417;28;2496;-82
2021/04/10 04:27:20;;;;;;;;;;;8.00;66.50;;;7.16;46.95;95467.41;10321926;28;2646;-83
2021/04/10 04:32:24;;;;;;;;;;;9.60;67.00;;;7.26;46.93;95482.72;10347811;28;2438;-80
2021/04/10 04:37:26;;;;;;;;;;;8.10;66.20;;;7.39;46.12;95484.13;10325443;28;2386;-81
2021/04/10 04:42:28;;;;;;;;;;;9.20;66.30;;;7.36;46.38;95477.41;10315727;28;2426;-81
2021/04/10 04:47:30;;;;;;;;;;;8.60;65.90;;;7.46;45.91;95479.34;10314747;28;2261;-80
2021/04/10 04:52:33;;;;;;;;;;;10.30;66.40;;;7.48;46.43;95493.25;10313878;28;2663;-80
2021/04/10 04:57:35;;;;;;;;;;;9.20;65.60;;;7.49;46.42;95501.00;10310294;28;2502;-82
2021/04/10 05:02:37;;;;;;;;;;;9.70;65.90;;;7.48;45.77;95507.41;10329708;28;2390;-81
2021/04/10 05:07:39;;;;;;;;;;;9.30;65.60;;;7.49;46.42;95514.38;10311734;28;2325;-82
2021/04/10 05:12:42;;;;;;;;;;;8.90;65.50;;;7.57;45.72;95521.94;10326586;28;2160;-80
2021/04/10 05:17:43;;;;;;;;;;;8.50;65.10;;;7.67;46.26;95523.81;10311566;28;2518;-81
2021/04/10 05:22:46;;;;;;;;;;;10.10;66.10;;;7.75;45.75;95523.31;10308732;28;2481;-80
2021/04/10 05:27:48;;;;;;;;;;;9.10;65.40;;;8.15;45.13;95523.75;10329626;28;1918;-82
2021/04/10 05:32:50;;;;;;;;;;;8.90;65.00;;;8.41;44.20;95522.75;10308652;28;1454;-81
2021/04/10 05:37:53;;;;;;;;;;;10.40;64.70;;;8.63;43.62;95525.97;10320244;28;1622;-81
2021/04/10 05:42:55;;;;;;;;;;;9.40;63.20;;;9.03;42.21;95518.19;10340102;28;1363;-82
2021/04/10 05:47:57;;;;;;;;;;;11.10;63.20;;;9.09;41.75;95520.59;10316978;28;1899;-81
2021/04/10 05:52:59;;;;;;;;;;;9.90;61.90;;;9.51;41.60;95522.13;10342626;28;1258;-80
2021/04/10 05:58:01;;;;;;;;;;;10.20;61.50;;;9.76;40.76;95523.94;10319087;28;1465;-80
2021/04/10 06:03:03;;;;;;;;;;;10.50;60.80;;;9.50;41.43;95525.91;10331275;28;1658;-80
2021/04/10 06:08:06;;;;;;;;;;;10.50;60.50;;;9.59;41.39;95526.94;10328065;28;1989;-79
2021/04/10 06:13:08;;;;;;;;;;;10.40;60.60;;;10.17;40.24;95532.59;10341400;28;1733;-78
2021/04/10 06:18:10;;;;;;;;;;;10.70;60.30;;;10.73;38.94;95542.25;10339442;28;1398;-79
2021/04/10 06:23:12;;;;;;;;;;;11.30;59.40;;;11.34;37.54;95537.19;10318361;28;1616;-80
2021/04/10 06:28:14;;;;;;;;;;;11.80;58.40;;;11.77;36.87;95539.16;10339095;28;1910;-81
2021/04/10 06:33:16;;;;;;;;;;;12.20;57.70;;;11.45;36.80;95537.88;10330552;28;2941;-80
2021/04/10 06:38:18;;;;;;;;;;;12.30;56.80;;;11.53;37.09;95531.06;10327862;28;1457;-81
2021/04/10 06:43:20;;;;;;;;;;;12.30;56.90;;;11.94;36.21;95536.03;10309881;28;1368;-80
2021/04/10 06:48:22;;;;;;;;;;;12.50;56.50;;;11.87;36.97;95537.19;10324444;28;1964;-81
2021/04/10 06:53:23;;;;;;;;;;;12.70;56.20;;;11.99;36.40;95527.91;10328873;28;1219;-81
2021/04/10 06:58:25;;;;;;;;;;;12.80;56.00;;;12.09;36.28;95519.69;10333384;28;1814;-82
2021/04/10 07:03:27;;;;;;;;;;;12.80;55.60;;;12.32;35.46;95529.63;10348692;28;1552;-85
2021/04/10 07:08:29;;;;;;;;;;;13.00;55.70;;;12.27;36.50;95532.38;10343358;28;1954;-86
2021/04/10 07:13:31;;;;;;;;;;;13.10;55.60;;;12.59;35.78;95534.34;10345744;28;1992;-84
2021/04/10 07:18:33;;;;;;;;;;;13.20;55.30;;;12.93;34.66;95538.72;10367566;28;2353;-85
2021/04/10 07:23:35;;;;;;;;;;;13.60;54.60;;;13.33;33.82;95537.28;10304094;28;2360;-82
2021/04/10 07:28:37;;;;;;;;;;;14.00;54.50;;;13.38;34.08;95539.09;10334004;28;2361;-81
2021/04/10 07:33:38;;;;;;;;;;;14.00;54.10;;;13.35;34.86;95540.47;10330817;28;2004;-83
2021/04/10 07:38:40;;;;;;;;;;;14.20;54.40;;;13.71;34.40;95548.75;10319577;28;2361;-82
2021/04/10 07:43:42;;;;;;;;;;;14.50;53.90;;;13.93;33.53;95539.97;10322735;28;2315;-78
2021/04/10 07:48:44;;;;;;;;;;;14.80;53.30;;;14.31;33.04;95545.94;10325213;28;2319;-86
2021/04/10 07:53:46;;;;;;;;;;;15.20;52.70;;;14.83;32.42;95548.38;10333015;28;2306;-80
2021/04/10 08:04:04;;;;;;;;;;;15.70;52.20;;;14.56;32.56;95558.13;10432015;23;3394;-77
2021/04/10 08:09:06;;;;;;;;;;;15.50;52.10;;;14.53;32.95;95571.47;10329796;28;3483;-77
2021/04/10 08:14:08;;;;;;;;;;;15.60;52.10;;;14.68;32.68;95564.94;10341815;28;2519;-81
2021/04/10 08:19:10;;;;;;;;;;;15.70;51.80;;;14.26;33.63;95572.28;10366906;28;2645;-78
2021/04/10 08:24:12;;;;;;;;;;;15.30;52.80;;;14.13;33.90;95570.41;10350901;28;2330;-80
2021/04/10 08:29:14;;;;;;;;;;;15.10;53.10;;;13.86;34.96;95577.34;10369464;28;2635;-80
2021/04/10 08:34:16;;;;;;;;;;;14.90;53.70;;;13.93;34.44;95569.69;10340287;28;2222;-80
2021/04/10 08:39:18;;;;;;;;;;;14.80;53.70;;;14.02;34.92;95559.78;10345398;28;2690;-80
2021/04/10 08:44:20;;;;;;;;;;;14.90;54.20;;;14.10;34.49;95565.56;10352061;28;2337;-79
2021/04/10 08:49:21;;;;;;;;;;;15.00;53.90;;;14.39;34.20;95574.19;10344403;28;2407;-80
2021/04/10 08:54:23;;;;;;;;;;;15.20;53.80;;;14.33;34.67;95573.47;10361711;28;2324;-79
2021/04/10 08:59:25;;;;;;;;;;;15.20;53.70;;;14.61;34.64;95573.47;10361969;28;2309;-80
2021/04/10 09:04:27;;;;;;;;;;;15.50;53.90;;;15.09;33.80;95579.16;10359792;28;2428;-81
2021/04/10 09:09:29;;;;;;;;;;;15.90;53.70;;;14.93;33.81;95577.09;10344857;28;2394;-79
2021/04/10 09:14:31;;;;;;;;;;;15.90;53.10;;;14.36;34.59;95582.88;10339069;28;2403;-79
2021/04/10 09:19:33;;;;;;;;;;;15.50;53.50;;;15.13;33.57;95582.03;10359540;28;2429;-78
2021/04/10 09:24:35;;;;;;;;;;;15.60;53.40;;;15.69;32.14;95583.38;10341613;28;2389;-80
2021/04/10 09:29:37;;;;;;;;;;;16.10;52.60;;;15.57;32.40;95583.91;10354926;28;2347;-79
2021/04/10 09:34:39;;;;;;;;;;;16.50;51.60;;;15.44;32.67;95584.78;10351434;28;2326;-82
2021/04/10 09:39:41;;;;;;;;;;;16.30;51.90;;;15.81;32.29;95585.53;10338810;28;2346;-82
2021/04/10 09:44:44;;;;;;;;;;;16.50;52.00;;;15.93;32.23;95583.03;10362921;28;2403;-84
2021/04/10 09:49:48;;;;;;;;;;;16.60;51.80;;;16.52;30.88;95583.56;10362591;28;2400;-86
2021/04/10 09:54:50;;;;;;;;;;;17.20;50.80;;;16.89;30.59;95578.69;10347533;28;2401;-82
2021/04/10 09:59:53;;;;;;;;;;;17.50;50.30;;;16.75;30.56;95576.94;10349061;28;2401;-85
2021/04/10 10:04:56;;;;;;;;;;;17.50;50.10;;;17.73;28.99;95572.75;10358309;28;1806;-83
2021/04/10 10:09:59;;;;;;;;;;;18.10;49.70;;;17.41;29.32;95562.38;10385148;28;2350;-81
2021/04/10 10:15:04;;;;;;;;;;;18.40;48.40;;;17.05;28.72;95552.69;10354729;28;2373;-82
2021/04/10 10:20:09;;;;;;;;;;;18.00;47.90;;;16.75;29.72;95538.94;10363473;28;2254;-86
2021/04/10 10:25:11;;;;;;;;;;;17.60;48.60;;;17.39;29.30;95551.06;10377429;28;2341;-81
2021/04/10 10:30:13;;;;;;;;;;;18.00;48.70;;;16.69;29.69;95550.22;10372812;28;2342;-83
2021/04/10 10:35:17;;;;;;;;;;;17.80;48.60;;;17.26;29.38;95542.75;10357631;28;2384;-83
2021/04/10 10:40:19;;;;;;;;;;;17.90;48.90;;;16.92;29.86;95537.31;10389001;28;2417;-81
2021/04/10 10:45:22;;;;;;;;;;;17.90;48.50;;;16.68;30.80;95533.16;10357282;28;2321;-80
2021/04/10 10:50:24;;;;;;;;;;;17.70;49.20;;;16.68;30.61;95521.50;10376645;28;2288;-80
2021/04/10 10:55:26;;;;;;;;;;;17.70;49.30;;;17.13;29.86;95522.00;10351718;28;2496;-82
2021/04/10 11:00:28;;;;;;;;;;;17.90;49.20;;;17.15;29.99;95510.81;10364577;28;2354;-80
2021/04/10 11:05:30;;;;;;;;;;;17.90;49.20;;;16.77;30.57;95507.97;10367307;28;2747;-80
2021/04/10 11:10:32;;;;;;;;;;;17.90;49.20;;;17.03;30.33;95500.59;10371464;28;2354;-79
2021/04/10 11:15:34;;;;;;;;;;;17.90;49.50;;;16.56;30.43;95492.28;10365527;28;2468;-80
2021/04/10 11:20:36;;;;;;;;;;;17.60;49.20;;;16.20;31.01;95485.19;10357805;28;2365;-80
2021/04/10 11:25:38;;;;;;;;;;;17.40;49.30;;;15.83;32.26;95477.59;10361616;28;2282;-80
2021/04/10 11:30:40;;;;;;;;;;;16.70;50.70;;;15.87;32.33;95484.00;10357475;28;2341;-80
2021/04/10 11:35:42;;;;;;;;;;;16.80;51.00;;;16.30;32.12;95467.03;10364584;28;2333;-81
2021/04/10 11:40:44;;;;;;;;;;;16.90;51.50;;;16.20;31.85;95468.13;10383837;28;2442;-81
2021/04/10 11:45:47;;;;;;;;;;;17.00;50.80;;;16.13;31.95;95463.16;10382107;28;2397;-80
2021/04/10 11:50:49;;;;;;;;;;;17.00;51.00;;;16.66;31.28;95464.00;10348720;28;2457;-83
2021/04/10 11:55:51;;;;;;;;;;;17.30;50.70;;;16.64;31.25;95461.63;10350295;28;2380;-84
2021/04/10 12:00:53;;;;;;;;;;;17.50;50.50;;;16.81;31.74;95451.91;10359308;28;2292;-82
2021/04/10 12:05:55;;;;;;;;;;;17.70;50.60;;;16.80;31.45;95442.19;10356605;28;1620;-82
2021/04/10 12:10:57;;;;;;;;;;;17.70;50.30;;;16.52;31.38;95434.31;10374308;28;1914;-84
2021/04/10 12:15:59;;;;;;;;;;;17.80;49.80;;;16.52;31.56;95434.31;10367122;28;1655;-85
2021/04/10 12:21:01;;;;;;;;;;;17.50;50.30;;;16.72;31.25;95433.72;10373459;28;1373;-83
2021/04/10 12:26:03;;;;;;;;;;;17.50;50.30;;;16.55;31.62;95435.63;10385394;28;1697;-82
2021/04/10 12:31:09;;;;;;;;;;;17.70;50.10;;;16.79;31.36;95424.28;10360194;28;1891;-84
2021/04/10 12:36:12;;;;;;;;;;;17.70;50.10;;;16.63;31.54;95424.75;10352708;28;1801;-83
2021/04/10 12:41:14;;;;;;;;;;;17.70;50.10;;;16.35;32.15;95426.19;10381913;28;1751;-82
2021/04/10 12:46:17;;;;;;;;;;;17.40;50.70;;;16.64;31.40;95418.22;10362449;28;1154;-82
2021/04/10 12:51:19;;;;;;;;;;;17.50;50.60;;;16.47;31.14;95408.16;10345960;28;1895;-82
2021/04/10 12:56:21;;;;;;;;;;;17.50;50.10;;;16.27;32.18;95403.38;10339630;28;1265;-85
2021/04/10 13:01:23;;;;;;;;;;;17.30;50.60;;;16.66;30.68;95394.25;10352737;28;1698;-84
2021/04/10 13:06:25;;;;;;;;;;;17.60;49.70;;;16.38;30.73;95396.50;10360420;28;1692;-84
2021/04/10 13:11:27;;;;;;;;;;;17.40;49.60;;;16.40;30.70;95385.34;10350381;28;1984;-84
2021/04/10 13:16:28;;;;;;;;;;;17.40;49.40;;;16.68;31.35;95367.59;10371476;28;1549;-81
2021/04/10 13:21:30;;;;;;;;;;;17.60;49.90;;;16.51;30.83;95369.53;10365818;28;1324;-84
2021/04/10 13:26:32;;;;;;;;;;;17.60;49.10;;;16.75;29.81;95369.84;10355375;28;1555;-83
2021/04/10 13:31:34;;;;;;;;;;;17.70;48.80;;;16.69;31.09;95361.06;10340306;28;1970;-83
2021/04/10 13:36:36;;;;;;;;;;;17.70;49.70;;;16.90;30.77;95360.41;10369907;28;1643;-81
2021/04/10 13:41:38;;;;;;;;;;;17.90;49.40;;;17.02;30.23;95361.31;10370823;28;1296;-82
2021/04/10 13:46:40;;;;;;;;;;;17.90;49.20;;;17.25;30.05;95351.03;10370154;28;1803;-83
2021/04/10 13:51:41;;;;;;;;;;;18.10;48.90;;;16.83;30.94;95338.38;10372180;28;1914;-84
2021/04/10 13:56:43;;;;;;;;;;;17.90;49.00;;;16.79;30.50;95332.00;10363972;28;1252;-85
2021/04/10 14:01:45;;;;;;;;;;;17.70;48.90;;;16.68;30.88;95331.53;10378577;28;1699;-85
2021/04/10 14:06:47;;;;;;;;;;;17.70;49.30;;;16.31;31.77;95335.72;10407929;28;1045;-85
2021/04/10 14:11:49;;;;;;;;;;;17.50;50.10;;;16.24;32.09;95327.28;10409006;28;1890;-82
2021/04/10 14:16:51;;;;;;;;;;;17.20;50.60;;;16.41;31.89;95316.41;10380463;28;1254;-80
2021/04/10 14:21:52;;;;;;;;;;;17.30;51.00;;;16.28;32.10;95311.94;10355967;28;1662;-83
2021/04/10 14:26:54;;;;;;;;;;;17.20;50.60;;;16.52;31.07;95314.94;10352293;28;1186;-85
2021/04/10 14:31:56;;;;;;;;;;;17.40;50.10;;;16.34;31.83;95321.50;10375153;28;1910;-85
2021/04/10 14:36:58;;;;;;;;;;;17.30;50.40;;;16.57;31.83;95322.13;10369489;28;1697;-83
2021/04/10 14:42:00;;;;;;;;;;;17.30;50.60;;;16.51;32.03;95329.63;10360829;28;1442;-82
2021/04/10 14:47:02;;;;;;;;;;;17.30;50.70;;;16.42;31.98;95328.88;10386191;28;1617;-82
2021/04/10 14:52:04;;;;;;;;;;;17.20;50.80;;;16.36;32.14;95317.38;10407134;28;1895;-83
2021/04/10 14:57:06;;;;;;;;;;;17.20;50.90;;;16.82;31.18;95304.22;10369898;28;1667;-82
2021/04/10 15:02:08;;;;;;;;;;;17.50;50.60;;;16.61;31.90;95314.94;10377902;28;1235;-81
2021/04/10 15:07:10;;;;;;;;;;;17.60;50.60;;;16.14;32.63;95307.50;10383731;28;1699;-83
2021/04/10 15:12:12;;;;;;;;;;;17.30;50.90;;;15.91;33.50;95306.09;10400319;28;1983;-82
2021/04/10 15:17:14;;;;;;;;;;;16.90;51.80;;;15.84;33.50;95303.84;10393401;28;1331;-86
2021/04/10 15:22:16;;;;;;;;;;;16.80;52.00;;;16.03;33.18;95289.97;10386438;28;1485;-82
2021/04/10 15:27:17;;;;;;;;;;;16.80;52.10;;;16.12;33.29;95282.63;10386668;28;1103;-83
2021/04/10 15:32:19;;;;;;;;;;;16.90;52.30;;;16.00;33.61;95273.53;10383257;28;1958;-83
2021/04/10 15:37:21;;;;;;;;;;;16.90;52.10;;;16.03;33.16;95265.59;10356545;28;1582;-85
2021/04/10 15:42:23;;;;;;;;;;;16.90;52.20;;;16.00;33.91;95262.69;10360263;28;1243;-81
2021/04/10 15:47:24;;;;;;;;;;;16.90;52.60;;;15.68;34.45;95257.44;10338861;28;1680;-83
2021/04/10 15:52:30;;;;;;;;;;;16.80;52.80;;;15.62;34.62;95261.41;10378647;28;1887;-84
2021/04/10 15:57:32;;;;;;;;;;;16.60;53.10;;;15.65;34.76;95252.66;10372463;28;1664;-82
2021/04/10 16:02:34;;;;;;;;;;;16.50;53.40;;;15.59;34.84;95248.50;10360359;28;1316;-82
2021/04/10 16:07:36;;;;;;;;;;;16.60;53.40;;;15.52;34.98;95247.34;10363524;28;1795;-82
2021/04/10 16:12:38;;;;;;;;;;;16.50;53.60;;;15.53;35.25;95252.47;10359034;28;1910;-85
2021/04/10 16:17:39;;;;;;;;;;;16.50;53.90;;;15.44;35.64;95257.06;10349534;28;1420;-83
2021/04/10 16:22:41;;;;;;;;;;;16.40;54.20;;;15.46;35.60;95254.84;10339219;28;1700;-81
2021/04/10 16:27:43;;;;;;;;;;;16.30;54.40;;;15.46;35.84;95238.59;10361317;28;1126;-84
2021/04/10 16:32:45;;;;;;;;;;;16.40;54.70;;;15.46;36.06;95238.59;10362403;28;1981;-83
2021/04/10 16:37:47;;;;;;;;;;;16.30;54.90;;;15.40;36.35;95237.16;10345969;28;1131;-84
2021/04/10 16:42:49;;;;;;;;;;;16.30;55.10;;;15.27;36.59;95219.94;10357336;28;1621;-83
2021/04/10 16:47:50;;;;;;;;;;;16.30;55.30;;;15.19;36.86;95219.91;10347082;28;1542;-81
2021/04/10 16:52:52;;;;;;;;;;;16.10;55.60;;;15.12;37.24;95218.47;10348225;28;1914;-82
2021/04/10 16:57:54;;;;;;;;;;;16.00;55.50;;;15.00;37.50;95215.56;10376264;28;1179;-83
2021/04/10 17:02:56;;;;;;;;;;;16.00;55.80;;;14.96;37.69;95220.03;10362903;28;1615;-83
2021/04/10 17:07:58;;;;;;;;;;;15.90;56.20;;;14.88;37.94;95226.19;10407551;28;1114;-87
2021/04/10 17:12:59;;;;;;;;;;;15.80;56.40;;;14.83;38.24;95210.13;10396211;28;2075;-87
2021/04/10 17:18:01;;;;;;;;;;;15.80;56.80;;;14.67;38.99;95217.06;10410149;28;1550;-86
2021/04/10 17:23:07;;;;;;;;;;;15.60;57.10;;;14.54;39.28;95213.34;10381410;28;1242;-85
2021/04/10 17:28:09;;;;;;;;;;;15.50;57.70;;;14.39;39.65;95227.25;10404892;28;1997;-83
2021/04/10 17:33:11;;;;;;;;;;;15.40;57.90;;;14.24;39.87;95220.31;10410604;28;1598;-84
2021/04/10 17:38:14;;;;;;;;;;;15.30;58.50;;;14.08;40.79;95206.44;10398607;28;1303;-84
2021/04/10 17:43:16;;;;;;;;;;;15.10;59.00;;;13.94;41.15;95217.31;10382412;28;1648;-84
2021/04/10 17:48:18;;;;;;;;;;;15.00;59.30;;;13.77;41.90;95217.97;10391524;28;1888;-85
2021/04/10 17:53:23;;;;;;;;;;;14.80;59.70;;;13.63;41.61;95219.16;10384844;28;1545;-85
2021/04/10 17:58:25;;;;;;;;;;;14.70;60.20;;;13.47;42.59;95216.00;10364325;28;1416;-83
2021/04/10 18:03:27;;;;;;;;;;;14.60;60.60;;;13.31;43.06;95218.25;10365432;28;1777;-82
2021/04/10 18:08:28;;;;;;;;;;;14.40;61.10;;;13.29;42.95;95206.94;10397793;28;1904;-79
2021/04/10 18:13:31;;;;;;;;;;;14.30;61.60;;;13.09;43.23;95210.84;10376789;28;1397;-81
2021/04/10 18:18:32;;;;;;;;;;;14.20;61.90;;;12.93;44.27;95210.41;10379280;28;1680;-82
2021/04/10 18:23:35;;;;;;;;;;;14.10;62.60;;;12.77;45.33;95217.19;10377686;28;1359;-82
2021/04/10 18:28:37;;;;;;;;;;;13.90;63.10;;;12.57;45.27;95217.59;10386411;28;1914;-81
2021/04/10 18:33:39;;;;;;;;;;;13.80;63.70;;;12.58;45.09;95220.00;10377913;28;1320;-82
2021/04/10 18:38:41;;;;;;;;;;;13.60;64.10;;;12.61;45.78;95219.41;10370938;28;1641;-82
2021/04/10 18:43:43;;;;;;;;;;;13.60;64.20;;;12.48;45.95;95224.78;10394035;28;1256;-81
2021/04/10 18:48:45;;;;;;;;;;;13.50;64.70;;;12.36;47.32;95227.97;10381365;28;1883;-81
2021/04/10 18:53:46;;;;;;;;;;;13.40;65.20;;;12.26;47.14;95230.84;10387761;28;1620;-83
2021/04/10 18:58:48;;;;;;;;;;;13.30;65.60;;;11.94;47.75;95234.38;10384174;28;1120;-80
2021/04/10 19:03:50;;;;;;;;;;;13.10;65.70;;;11.73;48.01;95245.44;10383408;28;1622;-83
2021/04/10 19:08:52;;;;;;;;;;;12.90;66.20;;;11.59;48.87;95253.47;10386260;28;1950;-80
2021/04/10 19:14:08;;;;;;;;;;;12.80;66.80;;;11.55;48.75;95247.06;10375926;28;1633;-80
2021/04/10 19:19:10;;;;;;;;;;;12.70;67.30;;;11.42;49.62;95247.00;10369823;28;1561;-79
2021/04/10 19:24:13;;;;;;;;;;;12.60;67.60;;;11.47;49.41;95253.09;10375727;28;1470;-80
2021/04/10 19:29:15;;;;;;;;;;;12.40;68.30;;;11.28;49.98;95250.41;10384993;28;1910;-81
2021/04/10 19:34:17;;;;;;;;;;;12.40;68.50;;;11.21;50.41;95255.34;10368348;28;1418;-81
2021/04/10 19:39:19;;;;;;;;;;;12.30;68.80;;;11.10;51.13;95262.75;10360266;28;1557;-81
2021/04/10 19:44:21;;;;;;;;;;;12.20;69.10;;;11.04;51.16;95260.41;10388710;28;1201;-82
2021/04/10 19:49:24;;;;;;;;;;;12.10;69.50;;;11.02;51.56;95265.28;10360407;28;1914;-82
2021/04/10 19:54:26;;;;;;;;;;;12.00;69.80;;;11.05;51.15;95265.50;10366968;28;1602;-82
2021/04/10 19:59:29;;;;;;;;;;;12.10;70.10;;;11.11;50.99;95252.78;10388202;28;1324;-80
2021/04/10 20:04:31;;;;;;;;;;;12.10;70.20;;;11.08;51.20;95248.78;10376538;28;1533;-79
2021/04/10 20:09:33;;;;;;;;;;;12.10;70.00;;;10.92;51.34;95244.69;10366824;28;1961;-83
2021/04/10 20:14:37;;;;;;;;;;;12.00;70.00;;;10.74;52.04;95254.31;10382307;28;1194;-82
2021/04/10 20:19:43;;;;;;;;;;;11.90;70.50;;;10.64;52.68;95238.31;10381875;28;1621;-82
2021/04/10 20:24:46;;;;;;;;;;;11.80;71.00;;;10.60;52.64;95241.84;10362636;28;1217;-83
2021/04/10 20:29:48;;;;;;;;;;;11.70;71.20;;;10.42;53.53;95236.13;10373794;28;1974;-82
2021/04/10 20:34:49;;;;;;;;;;;11.60;71.70;;;10.39;53.62;95230.53;10389881;28;1628;-83
2021/04/10 20:39:51;;;;;;;;;;;11.50;72.20;;;10.32;54.35;95222.03;10381530;28;1293;-81
2021/04/10 20:44:53;;;;;;;;;;;11.40;72.70;;;10.23;54.35;95219.94;10355221;28;1618;-80
2021/04/10 20:49:55;;;;;;;;;;;11.40;73.10;;;10.23;54.85;95214.56;10383281;28;1899;-83
2021/04/10 20:54:57;;;;;;;;;;;11.30;73.70;;;10.31;54.44;95212.34;10363210;28;1610;-81
2021/04/10 20:59:59;;;;;;;;;;;11.30;73.70;;;10.29;54.34;95216.13;10409939;28;1684;-80
2021/04/10 21:05:02;;;;;;;;;;;11.30;73.60;;;10.13;55.26;95208.50;10405480;28;1324;-81
2021/04/10 21:10:04;;;;;;;;;;;11.20;74.00;;;10.15;54.66;95215.16;10393050;28;1964;-80
2021/04/10 21:15:06;;;;;;;;;;;11.20;73.90;;;10.11;55.38;95218.69;10370049;28;1314;-80
2021/04/10 21:20:08;;;;;;;;;;;11.20;74.50;;;10.16;55.23;95206.00;10374997;28;1728;-82
2021/04/10 21:25:09;;;;;;;;;;;11.20;74.70;;;10.19;54.86;95201.97;10378515;28;1678;-82
2021/04/10 21:30:11;;;;;;;;;;;11.20;74.40;;;10.13;54.30;95197.75;10363104;28;1879;-81
2021/04/10 21:35:13;;;;;;;;;;;11.20;73.70;;;10.08;53.54;95192.41;10367330;28;1660;-82
2021/04/10 21:40:16;;;;;;;;;;;11.10;73.20;;;10.02;53.20;95194.34;10377897;28;1395;-83
2021/04/10 21:45:17;;;;;;;;;;;11.00;72.70;;;10.12;52.06;95188.88;10365844;28;1581;-81
2021/04/10 21:50:19;;;;;;;;;;;11.10;72.30;;;10.15;51.74;95195.56;10379040;28;1951;-81
2021/04/10 21:55:21;;;;;;;;;;;11.10;71.40;;;10.18;50.04;95192.28;10370626;28;1546;-83
2021/04/10 22:00:26;;;;;;;;;;;11.10;70.20;;;10.26;48.54;95195.22;10371727;28;1562;-81
2021/04/10 22:05:29;;;;;;;;;;;11.10;68.80;;;10.20;47.99;95196.31;10353748;28;1244;-81
2021/04/10 22:10:31;;;;;;;;;;;11.20;68.00;;;10.18;47.22;95197.66;10379452;28;1914;-82
2021/04/10 22:15:34;;;;;;;;;;;11.10;67.40;;;10.17;47.11;95191.50;10380923;28;1242;-82
2021/04/10 22:20:36;;;;;;;;;;;11.10;67.50;;;10.09;47.35;95185.97;10390825;28;1809;-82
2021/04/10 22:25:37;;;;;;;;;;;11.10;67.30;;;9.99;48.15;95179.63;10383807;28;1558;-81
2021/04/10 22:30:39;;;;;;;;;;;11.00;67.40;;;9.94;48.39;95179.66;10403534;28;1918;-80
2021/04/10 22:35:41;;;;;;;;;;;10.90;67.80;;;9.86;48.44;95182.97;10384419;28;1561;-82
2021/04/10 22:40:43;;;;;;;;;;;11.00;67.90;;;9.80;49.09;95178.75;10383541;28;1359;-81
2021/04/10 22:45:52;;;;;;;;;;;10.80;68.20;;;9.69;49.47;95186.06;10370951;28;1618;-83
2021/04/10 22:50:54;;;;;;;;;;;10.80;68.50;;;9.66;48.83;95181.25;10368991;28;1891;-82
2021/04/10 22:55:55;;;;;;;;;;;10.70;68.50;;;9.59;49.13;95185.34;10359964;28;1240;-81
2021/04/10 23:00:57;;;;;;;;;;;10.60;68.30;;;9.58;49.00;95184.53;10380184;28;1561;-83
2021/04/10 23:05:59;;;;;;;;;;;10.60;68.20;;;9.51;48.42;95176.03;10388289;28;1146;-81
2021/04/10 23:11:01;;;;;;;;;;;10.60;68.30;;;9.51;48.46;95177.91;10356064;28;1962;-82
2021/04/10 23:16:03;;;;;;;;;;;10.50;68.20;;;9.49;48.53;95180.88;10390884;28;1664;-81
2021/04/10 23:21:05;;;;;;;;;;;10.50;68.20;;;9.41;48.54;95178.78;10366468;28;1434;-81